Time;durP1;ratioP1;P1;durP2;ratioP2;P2;SDS_P1;SDS_P2;PMS_P1;PMS_P2;Temp;Humidity;BMP_temperature;BMP_pressure;BME280_temperature;BME280_humidity;BME280_pressure;Samples;Min_cycle;Max_cycle;Signal;HPM_P1;HPM_P2
2024/02/27 00:01:35;;;;;;;0.77;0.77;;;;;;;8.67;93.90;97154.88;5052802;28;20228;-78
2024/02/27 00:04:01;;;;;;;0.80;0.70;;;;;;;8.60;94.01;97154.53;5051705;28;20310;-79
2024/02/27 00:06:28;;;;;;;1.23;0.70;;;;;;;8.69;93.97;97145.91;5052072;28;20214;-77
2024/02/27 00:08:54;;;;;;;0.80;0.60;;;;;;;8.85;93.56;97156.09;5051222;28;20218;-77
2024/02/27 00:11:22;;;;;;;0.90;0.80;;;;;;;8.72;94.36;97153.59;5055712;28;20326;-78
2024/02/27 00:13:48;;;;;;;0.80;0.50;;;;;;;8.70;95.57;97167.84;5058886;28;20216;-78
2024/02/27 00:16:16;;;;;;;0.93;0.70;;;;;;;8.66;96.54;97174.28;5057854;28;20217;-78
2024/02/27 00:18:44;;;;;;;0.40;0.40;;;;;;;8.62;97.39;97175.50;5054765;28;20207;-79
2024/02/27 00:21:10;;;;;;;1.00;0.60;;;;;;;8.60;97.79;97183.50;5054694;28;20214;-77
2024/02/27 00:23:37;;;;;;;0.50;0.50;;;;;;;8.52;97.88;97185.03;5054961;28;20218;-79
2024/02/27 00:26:04;;;;;;;0.60;0.50;;;;;;;8.51;98.82;97197.34;5054749;28;20231;-78
2024/02/27 00:28:31;;;;;;;0.87;0.70;;;;;;;8.49;98.51;97190.53;5054251;28;20215;-77
2024/02/27 00:30:57;;;;;;;0.80;0.70;;;;;;;8.49;99.18;97199.28;5054635;28;20216;-77
2024/02/27 00:33:24;;;;;;;0.80;0.60;;;;;;;8.64;99.05;97199.91;5054494;28;20234;-77
2024/02/27 00:35:54;;;;;;;1.30;0.70;;;;;;;8.65;100.00;97206.84;5054525;28;20215;-77
2024/02/27 00:38:21;;;;;;;0.73;0.60;;;;;;;8.65;100.00;97218.25;5054333;28;20210;-77
2024/02/27 00:40:47;;;;;;;0.63;0.63;;;;;;;8.66;100.00;97213.78;5054229;28;20587;-77
2024/02/27 00:43:14;;;;;;;0.67;0.67;;;;;;;8.60;100.00;97219.53;5054432;28;20234;-77
2024/02/27 00:45:40;;;;;;;2.10;0.77;;;;;;;8.53;100.00;97224.44;5054874;28;20247;-78
2024/02/27 00:48:07;;;;;;;0.73;0.70;;;;;;;8.55;100.00;97226.91;5059501;28;20211;-78
2024/02/27 00:50:34;;;;;;;0.73;0.70;;;;;;;8.55;100.00;97233.03;5059314;28;20207;-78
2024/02/27 00:53:02;;;;;;;1.03;0.87;;;;;;;8.47;100.00;97239.84;5058573;28;20242;-78
2024/02/27 00:55:28;;;;;;;0.80;0.80;;;;;;;8.52;100.00;97261.41;5059171;28;20211;-78
2024/02/27 00:57:55;;;;;;;1.77;1.10;;;;;;;8.43;100.00;97249.75;5059344;28;20211;-78
2024/02/27 01:00:21;;;;;;;1.20;0.93;;;;;;;8.44;100.00;97253.25;5059627;28;20211;-78
2024/02/27 01:02:48;;;;;;;2.53;1.30;;;;;;;8.46;100.00;97264.50;5059521;28;20257;-78
2024/02/27 01:05:15;;;;;;;1.33;1.20;;;;;;;8.43;100.00;97248.91;5059082;28;20235;-78
2024/02/27 01:07:42;;;;;;;2.20;1.40;;;;;;;8.42;100.00;97263.03;5059142;28;20215;-78
2024/02/27 01:10:10;;;;;;;3.13;1.33;;;;;;;8.45;100.00;97258.38;5059578;28;20273;-78
2024/02/27 01:12:37;;;;;;;2.27;1.30;;;;;;;8.39;100.00;97263.28;5058394;28;20230;-78
2024/02/27 01:15:04;;;;;;;1.73;1.43;;;;;;;8.32;100.00;97262.06;5057728;28;20297;-78
2024/02/27 01:17:31;;;;;;;1.90;1.37;;;;;;;8.28;100.00;97269.34;5059275;28;20537;-78
2024/02/27 01:19:57;;;;;;;3.00;1.73;;;;;;;8.30;100.00;97279.72;5058970;28;20346;-78
2024/02/27 01:22:28;;;;;;;1.90;1.70;;;;;;;8.36;100.00;97269.59;5059095;28;20738;-78
2024/02/27 01:24:55;;;;;;;4.57;1.90;;;;;;;8.37;100.00;97270.44;5057357;28;20231;-78
2024/02/27 01:27:23;;;;;;;3.07;2.20;;;;;;;8.31;100.00;97265.59;5058141;28;20594;-78
2024/02/27 01:29:50;;;;;;;2.83;2.30;;;;;;;8.30;100.00;97263.94;5057982;28;20210;-78
2024/02/27 01:32:16;;;;;;;3.03;2.00;;;;;;;8.27;100.00;97270.25;5057981;28;20231;-78
2024/02/27 01:34:43;;;;;;;2.27;2.03;;;;;;;8.21;100.00;97275.16;5057754;28;20221;-77
2024/02/27 01:37:09;;;;;;;3.53;2.07;;;;;;;8.18;100.00;97270.06;5057503;28;20232;-78
2024/02/27 01:39:36;;;;;;;3.40;2.17;;;;;;;8.17;100.00;97268.41;5057306;28;20224;-78
2024/02/27 01:42:03;;;;;;;3.23;2.30;;;;;;;8.11;100.00;97264.44;5056472;28;20231;-78
2024/02/27 01:44:31;;;;;;;2.80;2.10;;;;;;;8.08;100.00;97261.19;5057200;28;20217;-78
2024/02/27 01:47:00;;;;;;;4.37;2.40;;;;;;;7.94;100.00;97256.91;5057150;28;20215;-77
2024/02/27 01:49:29;;;;;;;3.37;2.10;;;;;;;7.94;100.00;97256.06;5057471;28;20579;-78
2024/02/27 01:51:56;;;;;;;2.73;2.00;;;;;;;7.94;100.00;97256.06;5057627;28;20587;-78
2024/02/27 01:54:26;;;;;;;3.03;1.80;;;;;;;7.93;100.00;97251.75;5057203;28;20208;-78
2024/02/27 01:56:55;;;;;;;2.77;2.10;;;;;;;7.92;100.00;97253.56;5056704;28;20269;-78
2024/02/27 01:59:22;;;;;;;2.90;2.17;;;;;;;7.98;100.00;97247.88;5057516;28;20209;-78
2024/02/27 02:01:52;;;;;;;3.37;2.30;;;;;;;7.98;100.00;97241.75;5057809;28;20229;-78
2024/02/27 02:04:19;;;;;;;3.60;2.70;;;;;;;7.87;100.00;97253.06;5061306;28;20211;-77
2024/02/27 02:06:46;;;;;;;3.33;2.47;;;;;;;7.89;100.00;97264.28;5068556;28;20240;-78
2024/02/27 02:09:13;;;;;;;4.77;2.53;;;;;;;7.86;100.00;97259.28;5066509;28;20217;-78
2024/02/27 02:11:40;;;;;;;3.73;3.00;;;;;;;7.85;100.00;97254.94;5066240;28;20234;-78
2024/02/27 02:14:07;;;;;;;4.07;2.97;;;;;;;7.75;100.00;97256.56;5061611;28;20232;-78
2024/02/27 02:16:34;;;;;;;4.80;3.13;;;;;;;7.61;100.00;97261.13;5060818;28;20208;-78
2024/02/27 02:19:01;;;;;;;5.17;3.30;;;;;;;7.70;100.00;97270.97;5059949;28;20229;-78
2024/02/27 02:21:29;;;;;;;6.03;3.53;;;;;;;7.65;100.00;97273.13;5059818;28;20332;-78
2024/02/27 02:23:59;;;;;;;3.87;3.00;;;;;;;7.69;100.00;97285.09;5060069;28;20224;-78
2024/02/27 02:26:28;;;;;;;6.40;3.80;;;;;;;7.75;100.00;97282.00;5059524;28;20233;-77
2024/02/27 02:28:55;;;;;;;6.17;3.73;;;;;;;7.73;100.00;97281.28;5058948;28;20216;-78
2024/02/27 02:31:21;;;;;;;6.30;3.67;;;;;;;7.71;100.00;97280.56;5059032;28;20239;-78
2024/02/27 02:33:47;;;;;;;5.00;4.10;;;;;;;7.73;100.00;97286.56;5058466;28;20215;-78
2024/02/27 02:36:14;;;;;;;6.17;3.80;;;;;;;7.69;100.00;97287.72;5058332;28;20205;-78
2024/02/27 02:38:43;;;;;;;5.97;3.97;;;;;;;7.68;100.00;97286.03;5058938;28;20212;-78
2024/02/27 02:41:09;;;;;;;6.67;4.00;;;;;;;7.71;100.00;97276.13;5059059;28;20215;-78
2024/02/27 02:43:36;;;;;;;6.07;3.90;;;;;;;7.77;100.00;97269.63;5058244;28;20208;-79
2024/02/27 02:46:03;;;;;;;5.97;4.00;;;;;;;7.75;100.00;97268.88;5056729;28;20237;-78
2024/02/27 02:48:29;;;;;;;5.43;4.40;;;;;;;7.77;100.00;97259.09;5056637;28;20219;-78
2024/02/27 02:50:56;;;;;;;7.07;4.00;;;;;;;7.77;100.00;97259.09;5056733;28;20214;-78
2024/02/27 02:53:22;;;;;;;8.60;4.50;;;;;;;7.74;100.00;97257.53;5057132;28;20232;-78
2024/02/27 02:55:50;;;;;;;6.53;4.17;;;;;;;7.77;100.00;97264.34;5056108;28;20204;-78
2024/02/27 02:58:16;;;;;;;6.53;4.57;;;;;;;7.78;100.00;97258.16;5055544;28;20234;-78
2024/02/27 03:00:43;;;;;;;7.80;4.63;;;;;;;7.78;100.00;97271.28;5053659;28;20615;-78
2024/02/27 03:03:09;;;;;;;6.20;4.07;;;;;;;7.70;100.00;97284.13;5051335;28;20224;-77
2024/02/27 03:05:36;;;;;;;7.10;4.13;;;;;;;7.78;100.00;97287.06;5051536;28;20241;-77
2024/02/27 03:08:04;;;;;;;6.30;4.30;;;;;;;7.68;100.00;97289.53;5051467;28;20204;-77
2024/02/27 03:10:31;;;;;;;5.50;3.90;;;;;;;7.55;100.00;97296.59;5052139;28;20204;-79
2024/02/27 03:12:58;;;;;;;6.07;3.90;;;;;;;7.50;100.00;97305.75;5051972;28;20241;-79
2024/02/27 03:15:25;;;;;;;4.43;3.60;;;;;;;7.45;100.00;97305.22;5051763;28;20201;-77
2024/02/27 03:17:51;;;;;;;8.77;5.00;;;;;;;7.46;100.00;97299.84;5051003;28;20225;-77
2024/02/27 03:20:18;;;;;;;7.87;4.60;;;;;;;7.52;100.00;97302.06;5051786;28;20233;-77
2024/02/27 03:22:44;;;;;;;7.87;4.70;;;;;;;7.51;100.00;97304.78;5051540;28;20231;-77
2024/02/27 03:25:11;;;;;;;7.57;4.90;;;;;;;7.51;100.00;97299.53;5051390;28;20343;-77
2024/02/27 03:27:38;;;;;;;6.90;5.03;;;;;;;7.55;100.00;97295.75;5051263;28;20680;-77
2024/02/27 03:30:10;;;;;;;7.17;4.60;;;;;;;7.59;100.00;97297.22;5051009;28;20231;-77
2024/02/27 03:32:37;;;;;;;9.73;4.80;;;;;;;7.67;97.75;97290.47;5051396;28;20229;-78
2024/02/27 03:35:03;;;;;;;7.60;4.80;;;;;;;7.59;96.60;97297.22;5051774;28;20578;-78
2024/02/27 03:37:30;;;;;;;7.67;4.87;;;;;;;7.59;95.93;97294.59;5052075;28;20202;-77
2024/02/27 03:39:56;;;;;;;7.03;4.63;;;;;;;7.66;94.89;97298.47;5051837;28;20726;-77
2024/02/27 03:42:23;;;;;;;6.30;4.30;;;;;;;7.67;93.82;97292.25;5051101;28;20251;-77
2024/02/27 03:44:49;;;;;;;8.47;5.33;;;;;;;7.66;92.98;97293.22;5051128;28;20229;-77
2024/02/27 03:47:17;;;;;;;8.50;4.70;;;;;;;7.72;93.23;97293.59;5052900;28;20257;-77
2024/02/27 03:49:44;;;;;;;8.93;5.70;;;;;;;7.69;93.37;97295.59;5055329;28;20675;-77
2024/02/27 03:52:11;;;;;;;7.10;4.73;;;;;;;7.63;92.47;97298.66;5055161;28;20223;-77
2024/02/27 03:54:37;;;;;;;7.70;5.03;;;;;;;7.70;92.79;97303.38;5055312;28;20215;-77
2024/02/27 03:57:04;;;;;;;9.00;5.10;;;;;;;7.58;92.72;97296.38;5055158;28;20305;-77
2024/02/27 03:59:31;;;;;;;8.43;5.60;;;;;;;7.68;92.89;97302.66;5055025;28;20205;-77
2024/02/27 04:01:57;;;;;;;9.20;5.30;;;;;;;7.60;92.90;97314.69;5055225;28;20229;-77
2024/02/27 04:04:25;;;;;;;9.03;5.10;;;;;;;7.59;93.51;97328.78;5055068;28;20218;-77
2024/02/27 04:06:51;;;;;;;8.13;4.83;;;;;;;7.58;93.60;97332.31;5055008;28;20239;-77
2024/02/27 04:09:18;;;;;;;7.60;5.07;;;;;;;7.51;94.28;97336.34;5054736;28;20219;-77
2024/02/27 04:11:44;;;;;;;7.90;5.00;;;;;;;7.61;94.94;97338.25;5054639;28;20229;-77
2024/02/27 04:14:11;;;;;;;8.97;5.20;;;;;;;7.58;95.40;97330.56;5054848;28;20227;-77
2024/02/27 04:16:39;;;;;;;10.63;5.20;;;;;;;7.59;95.83;97334.03;5055108;28;20200;-77
2024/02/27 04:19:06;;;;;;;7.70;5.00;;;;;;;7.56;97.29;97339.50;5054893;28;20296;-77
2024/02/27 04:21:34;;;;;;;7.23;5.30;;;;;;;7.57;97.99;97346.41;5054880;28;20231;-77
2024/02/27 04:24:01;;;;;;;8.77;5.23;;;;;;;7.52;98.65;97351.16;5054701;28;20209;-77
2024/02/27 04:26:27;;;;;;;8.13;5.13;;;;;;;7.56;97.79;97344.75;5054496;28;20230;-77
2024/02/27 04:28:54;;;;;;;7.10;4.70;;;;;;;7.52;98.64;97356.41;5054578;28;20212;-77
2024/02/27 04:31:21;;;;;;;9.37;5.17;;;;;;;7.46;98.98;97352.44;5054450;28;20236;-77
2024/02/27 04:33:47;;;;;;;9.20;5.60;;;;;;;7.61;98.60;97359.28;5054365;28;20654;-77
2024/02/27 04:36:14;;;;;;;11.60;5.77;;;;;;;7.59;98.52;97349.81;5054299;28;20676;-77
2024/02/27 04:38:42;;;;;;;8.57;5.40;;;;;;;7.56;98.58;97350.00;5054156;28;20204;-77
2024/02/27 04:41:09;;;;;;;8.97;6.00;;;;;;;7.61;98.58;97353.16;5054248;28;20438;-77
2024/02/27 04:43:35;;;;;;;9.70;5.37;;;;;;;7.54;98.90;97362.44;5062621;28;20234;-77
2024/02/27 04:46:02;;;;;;;10.17;6.10;;;;;;;7.50;99.00;97371.47;5068831;28;20629;-77
2024/02/27 04:48:28;;;;;;;8.90;5.63;;;;;;;7.45;100.00;97384.06;5067034;28;20302;-77
2024/02/27 04:50:55;;;;;;;8.67;5.93;;;;;;;7.41;100.00;97387.88;5064402;28;20220;-77
2024/02/27 04:53:21;;;;;;;10.83;6.10;;;;;;;7.42;100.00;97389.56;5055081;28;20233;-77
2024/02/27 04:55:49;;;;;;;9.87;5.97;;;;;;;7.42;100.00;97395.63;5054661;28;20655;-78
2024/02/27 04:58:15;;;;;;;9.53;6.30;;;;;;;7.43;100.00;97392.09;5053911;28;20223;-77
2024/02/27 05:00:42;;;;;;;9.03;5.77;;;;;;;7.39;100.00;97395.00;5055032;28;20218;-77
2024/02/27 05:03:08;;;;;;;9.60;6.10;;;;;;;7.46;99.71;97398.91;5054506;28;20228;-78
2024/02/27 05:05:36;;;;;;;8.90;5.97;;;;;;;7.51;99.67;97395.03;5054537;28;20224;-77
2024/02/27 05:08:03;;;;;;;9.80;5.70;;;;;;;7.43;99.81;97399.13;5057033;28;20270;-77
2024/02/27 05:10:30;;;;;;;11.90;6.50;;;;;;;7.41;99.79;97403.66;5054836;28;20209;-77
2024/02/27 05:12:58;;;;;;;9.30;6.23;;;;;;;7.31;100.00;97420.97;5053558;28;20745;-77
2024/02/27 05:15:25;;;;;;;9.47;6.67;;;;;;;7.43;100.00;97418.38;5053996;28;20308;-77
2024/02/27 05:17:51;;;;;;;9.53;5.90;;;;;;;7.42;100.00;97421.94;5053474;28;20213;-77
2024/02/27 05:20:18;;;;;;;10.90;5.87;;;;;;;7.52;99.20;97411.63;5053746;28;20232;-77
2024/02/27 05:22:44;;;;;;;11.57;6.60;;;;;;;7.38;99.55;97414.38;5053484;28;20231;-77
2024/02/27 05:25:11;;;;;;;11.37;7.60;;;;;;;7.32;100.00;97426.16;5053650;28;20213;-77
2024/02/27 05:27:38;;;;;;;9.50;6.40;;;;;;;7.29;100.00;97430.75;5053401;28;20235;-76
2024/02/27 05:30:07;;;;;;;10.47;6.07;;;;;;;7.27;100.00;97443.16;5053407;28;20218;-79
2024/02/27 05:32:34;;;;;;;9.80;6.47;;;;;;;7.26;100.00;97446.72;5053461;28;20244;-77
2024/02/27 05:35:00;;;;;;;12.27;6.43;;;;;;;7.31;100.00;97449.91;5053957;28;20562;-77
2024/02/27 05:37:27;;;;;;;10.00;6.57;;;;;;;7.32;100.00;97453.38;5053201;28;20211;-77
2024/02/27 05:39:53;;;;;;;11.20;6.40;;;;;;;7.31;100.00;97455.16;5053116;28;20208;-77
2024/02/27 05:42:19;;;;;;;10.53;6.87;;;;;;;7.32;100.00;97456.84;5053238;28;20261;-77
2024/02/27 05:44:46;;;;;;;12.40;8.17;;;;;;;7.22;100.00;97461.03;5053041;28;20208;-77
2024/02/27 05:47:14;;;;;;;13.00;7.27;;;;;;;7.29;100.00;97457.06;5054131;28;20232;-78
2024/02/27 05:49:41;;;;;;;11.57;7.80;;;;;;;7.22;100.00;97466.28;5053172;28;20215;-78
2024/02/27 05:52:07;;;;;;;12.67;7.73;;;;;;;7.24;100.00;97474.91;5052794;28;20642;-77
2024/02/27 05:54:34;;;;;;;14.33;7.87;;;;;;;7.21;100.00;97475.09;5053516;28;20247;-79
2024/02/27 05:57:01;;;;;;;11.63;7.33;;;;;;;7.23;100.00;97478.47;5053674;28;20226;-79
2024/02/27 05:59:27;;;;;;;10.17;7.23;;;;;;;7.24;100.00;97478.34;5053468;28;20207;-78
2024/02/27 06:01:54;;;;;;;12.47;7.50;;;;;;;7.22;100.00;97479.44;5052653;28;20229;-79
2024/02/27 06:04:21;;;;;;;13.03;8.03;;;;;;;7.09;100.00;97489.03;5052971;28;20213;-79
2024/02/27 06:06:48;;;;;;;13.07;8.50;;;;;;;7.07;100.00;97492.69;5052872;28;20236;-77
2024/02/27 06:09:15;;;;;;;11.20;7.70;;;;;;;7.14;100.00;97494.84;5051190;28;20212;-77
2024/02/27 06:11:41;;;;;;;15.23;8.33;;;;;;;7.18;100.00;97491.91;5052905;28;20229;-79
2024/02/27 06:14:08;;;;;;;11.57;7.43;;;;;;;7.16;100.00;97487.72;5052522;28;20226;-77
2024/02/27 06:16:34;;;;;;;12.20;8.07;;;;;;;7.11;100.00;97489.81;5052716;28;20308;-77
2024/02/27 06:19:00;;;;;;;15.63;8.37;;;;;;;7.14;100.00;97488.75;5052314;28;20213;-79
2024/02/27 06:24:12;;;;;;;13.83;8.23;;;;;;;7.15;100.00;97496.50;5052070;28;20216;-77
2024/02/27 06:26:39;;;;;;;12.67;8.17;;;;;;;7.08;100.00;97502.28;5052900;28;20233;-78
2024/02/27 06:29:05;;;;;;;12.70;8.57;;;;;;;7.14;100.00;97521.13;5052325;28;20310;-77
2024/02/27 06:31:32;;;;;;;13.50;8.57;;;;;;;7.12;100.00;97527.41;5051995;28;20319;-77
2024/02/27 06:33:59;;;;;;;13.73;8.60;;;;;;;7.14;100.00;97521.13;5052292;28;20668;-77
2024/02/27 06:36:26;;;;;;;14.83;8.70;;;;;;;7.11;100.00;97520.47;5052398;28;20200;-77
2024/02/27 06:38:55;;;;;;;14.17;8.73;;;;;;;7.08;100.00;97525.94;5051840;28;20246;-77
2024/02/27 06:41:22;;;;;;;13.63;8.47;;;;;;;7.09;100.00;97528.44;5051894;28;20320;-77
2024/02/27 06:43:49;;;;;;;12.53;8.60;;;;;;;7.10;100.00;97527.53;5051966;28;20262;-77
2024/02/27 06:46:18;;;;;;;15.27;9.03;;;;;;;7.12;100.00;97528.25;5051809;28;20295;-77
2024/02/27 06:48:45;;;;;;;16.77;9.13;;;;;;;7.13;100.00;97527.31;5051929;28;20233;-77
2024/02/27 06:51:11;;;;;;;16.03;9.73;;;;;;;7.14;100.00;97531.63;5052168;28;20587;-77
2024/02/27 06:53:39;;;;;;;17.50;9.83;;;;;;;7.17;100.00;97531.44;5052023;28;20555;-79
2024/02/27 06:56:07;;;;;;;17.67;9.60;;;;;;;7.11;100.00;97536.25;5051870;28;20588;-77
2024/02/27 06:58:33;;;;;;;18.03;9.70;;;;;;;7.11;100.00;97541.50;5051439;28;20640;-77
2024/02/27 07:01:01;;;;;;;15.90;9.97;;;;;;;7.05;100.00;97537.50;5052813;28;20204;-78
2024/02/27 07:03:27;;;;;;;18.37;10.23;;;;;;;7.17;100.00;97535.84;5052721;28;20212;-78
2024/02/27 07:05:54;;;;;;;17.93;9.80;;;;;;;7.11;100.00;97531.84;5054888;28;20210;-82
2024/02/27 07:08:21;;;;;;;16.10;9.43;;;;;;;7.18;100.00;97535.75;5056468;28;20229;-78
2024/02/27 07:10:47;;;;;;;15.77;9.07;;;;;;;7.14;100.00;97544.75;5052355;28;20217;-76
2024/02/27 07:13:15;;;;;;;16.30;9.43;;;;;;;7.12;100.00;97548.44;5051661;28;20231;-77
2024/02/27 07:15:42;;;;;;;14.63;9.43;;;;;;;7.07;100.00;97551.38;5051615;28;20215;-75
2024/02/27 07:18:09;;;;;;;16.20;8.97;;;;;;;7.09;100.00;97559.97;5051937;28;20208;-77
2024/02/27 07:20:36;;;;;;;14.57;9.40;;;;;;;7.10;100.00;97566.94;5052837;28;20212;-78
2024/02/27 07:23:02;;;;;;;15.07;9.97;;;;;;;7.09;100.00;97567.84;5052894;28;20228;-78
2024/02/27 07:25:29;;;;;;;17.33;10.13;;;;;;;7.17;100.00;97565.59;5062419;28;20647;-78
2024/02/27 07:27:55;;;;;;;17.43;9.57;;;;;;;7.18;100.00;97572.53;5064885;28;20242;-79
2024/02/27 07:30:23;;;;;;;15.50;9.47;;;;;;;7.15;100.00;97570.09;5066027;28;20270;-79
2024/02/27 07:32:50;;;;;;;15.60;9.50;;;;;;;7.19;100.00;97587.34;5059852;28;20230;-78
2024/02/27 07:35:16;;;;;;;16.77;9.90;;;;;;;7.13;100.00;97586.91;5057079;28;20223;-79
2024/02/27 07:37:43;;;;;;;17.17;10.40;;;;;;;7.19;100.00;97590.00;5056014;28;20206;-79
2024/02/27 07:40:10;;;;;;;16.83;9.80;;;;;;;7.23;100.00;97586.22;5054056;28;20207;-78
2024/02/27 07:42:37;;;;;;;16.53;9.87;;;;;;;7.22;100.00;97587.19;5052980;28;20234;-78
2024/02/27 07:45:04;;;;;;;16.87;9.97;;;;;;;7.23;100.00;97589.69;5055453;28;20250;-78
2024/02/27 07:47:32;;;;;;;16.23;9.73;;;;;;;7.38;100.00;97582.59;5072583;28;20234;-78
2024/02/27 07:49:59;;;;;;;17.00;10.67;;;;;;;7.42;100.00;97578.84;5070217;28;20218;-79
2024/02/27 07:52:25;;;;;;;15.53;10.03;;;;;;;7.37;100.00;97575.66;5070776;28;20227;-78
2024/02/27 07:54:52;;;;;;;18.83;10.37;;;;;;;7.39;100.00;97589.53;5070325;28;20208;-77
2024/02/27 07:57:18;;;;;;;17.70;10.63;;;;;;;7.46;100.00;97581.16;5075128;28;20204;-78
2024/02/27 07:59:45;;;;;;;16.17;10.53;;;;;;;7.53;100.00;97578.97;5078124;28;20226;-78
2024/02/27 08:02:11;;;;;;;16.93;9.70;;;;;;;7.47;100.00;97592.53;5078521;28;20241;-78
2024/02/27 08:04:39;;;;;;;17.33;10.20;;;;;;;7.55;100.00;97595.50;5078644;28;20218;-78
2024/02/27 08:07:05;;;;;;;15.73;10.03;;;;;;;7.63;100.00;97587.94;5076807;28;20224;-78
2024/02/27 08:09:33;;;;;;;18.97;10.53;;;;;;;7.70;100.00;97594.47;5077266;28;20351;-77
2024/02/27 08:11:59;;;;;;;15.07;9.77;;;;;;;7.78;100.00;97586.94;5072918;28;20254;-78
2024/02/27 08:14:29;;;;;;;16.20;9.50;;;;;;;7.80;100.00;97590.28;5070313;28;20212;-77
2024/02/27 08:16:57;;;;;;;18.23;10.27;;;;;;;7.94;100.00;97592.84;5070390;28;20687;-77
2024/02/27 08:19:24;;;;;;;16.00;10.23;;;;;;;8.03;98.81;97589.59;5069872;28;20216;-77
2024/02/27 08:21:52;;;;;;;16.40;10.03;;;;;;;8.07;98.18;97583.16;5069987;28;20235;-77
2024/02/27 08:24:19;;;;;;;17.33;11.70;;;;;;;8.15;98.34;97586.13;5070148;28;20439;-77
2024/02/27 08:26:46;;;;;;;15.00;10.20;;;;;;;8.26;99.07;97594.19;5070373;28;20447;-77
2024/02/27 08:29:12;;;;;;;16.30;10.80;;;;;;;8.31;96.95;97597.31;5070599;28;20593;-76
2024/02/27 08:31:40;;;;;;;15.83;10.07;;;;;;;8.32;95.63;97588.50;5070590;28;20232;-78
2024/02/27 08:34:06;;;;;;;18.43;10.23;;;;;;;8.36;96.62;97595.22;5072297;28;20442;-77
2024/02/27 08:36:33;;;;;;;16.80;9.70;;;;;;;8.41;95.35;97587.84;5074423;28;20208;-78
2024/02/27 08:39:01;;;;;;;15.50;9.67;;;;;;;8.52;95.06;97585.31;5074084;28;20209;-77
2024/02/27 08:41:28;;;;;;;16.87;9.90;;;;;;;8.54;92.35;97564.97;5074012;28;20300;-78
2024/02/27 08:43:54;;;;;;;16.23;10.00;;;;;;;8.47;92.76;97571.63;5074397;28;20212;-77
2024/02/27 08:46:21;;;;;;;17.85;10.63;;;;;;;8.46;92.32;97570.75;5074065;28;20793;-77
2024/02/27 08:48:49;;;;;;;16.95;11.90;;;;;;;8.55;92.51;97567.50;5074467;28;20454;-78
2024/02/27 08:51:16;;;;;;;15.90;10.53;;;;;;;8.61;93.75;97580.25;5077591;28;20285;-78
2024/02/27 08:53:42;;;;;;;16.83;10.33;;;;;;;8.69;92.43;97583.19;5078087;28;20234;-76
2024/02/27 08:56:10;;;;;;;18.90;10.50;;;;;;;8.73;92.27;97571.50;5077812;28;20210;-78
2024/02/27 08:58:37;;;;;;;17.83;11.00;;;;;;;8.82;91.34;97567.34;5074757;28;20212;-77
2024/02/27 09:01:04;;;;;;;16.33;10.37;;;;;;;8.82;90.62;97570.81;5077034;28;20210;-77
2024/02/27 09:03:31;;;;;;;16.27;11.50;;;;;;;8.90;89.39;97570.28;5072835;28;20449;-77
2024/02/27 09:05:57;;;;;;;17.57;10.33;;;;;;;8.84;91.33;97576.00;5073347;28;20217;-77
2024/02/27 09:08:24;;;;;;;17.53;10.20;;;;;;;8.78;90.93;97577.28;5073536;28;20228;-76
2024/02/27 09:10:50;;;;;;;17.43;10.07;;;;;;;8.72;92.42;97587.38;5073590;28;20784;-76
2024/02/27 09:13:18;;;;;;;14.87;10.70;;;;;;;8.71;92.35;97596.25;5073405;28;20267;-76
2024/02/27 09:15:45;;;;;;;17.03;10.57;;;;;;;8.64;91.77;97592.38;5073235;28;20658;-76
2024/02/27 09:18:11;;;;;;;16.23;9.90;;;;;;;8.63;94.14;97603.84;5073164;28;20212;-76
2024/02/27 09:20:41;;;;;;;17.73;10.53;;;;;;;8.69;95.60;97617.41;5073442;28;20212;-76
2024/02/27 09:23:07;;;;;;;18.92;12.80;;;;;;;8.74;97.05;97627.63;5078411;28;20434;-81
2024/02/27 09:25:34;;;;;;;18.13;11.53;;;;;;;8.76;96.80;97620.50;5084524;28;20226;-81
2024/02/27 09:28:00;;;;;;;18.00;11.27;;;;;;;8.76;95.91;97609.94;5083088;28;20288;-78
2024/02/27 09:30:28;;;;;;;19.20;11.67;;;;;;;8.68;97.77;97617.53;5073770;28;20219;-77
2024/02/27 09:32:55;;;;;;;18.60;11.53;;;;;;;8.69;100.00;97616.59;5074586;28;20251;-78
2024/02/27 09:35:21;;;;;;;21.10;12.50;;;;;;;8.79;100.00;97626.38;5074527;28;20438;-78
2024/02/27 09:37:48;;;;;;;19.20;12.07;;;;;;;8.79;97.88;97607.09;5074887;28;20202;-78
2024/02/27 09:40:14;;;;;;;19.77;11.07;;;;;;;8.69;99.44;97608.69;5075484;28;20227;-79
2024/02/27 09:42:41;;;;;;;21.93;11.50;;;;;;;8.66;100.00;97625.56;5073436;28;20230;-78
2024/02/27 09:45:09;;;;;;;20.20;11.57;;;;;;;8.68;100.00;97613.09;5074104;28;20216;-77
2024/02/27 09:47:45;;;;;;;20.83;12.17;;;;;;;8.68;98.22;97601.72;5074742;28;20229;-77
2024/02/27 09:50:13;;;;;;;17.43;10.87;;;;;;;8.56;98.09;97613.13;5073793;28;20245;-77
2024/02/27 09:52:41;;;;;;;22.05;13.68;;;;;;;8.63;100.00;97631.03;5074660;28;20430;-77
2024/02/27 09:55:09;;;;;;;19.30;12.33;;;;;;;8.69;100.00;97635.88;5074856;28;20212;-79
2024/02/27 09:57:37;;;;;;;21.93;12.97;;;;;;;8.73;100.00;97623.31;5077409;28;20668;-78
2024/02/27 10:00:04;;;;;;;20.60;11.97;;;;;;;8.68;98.41;97604.34;5077510;28;20308;-78
2024/02/27 10:02:31;;;;;;;20.10;11.40;;;;;;;8.76;97.76;97605.50;5081179;28;20653;-78
2024/02/27 10:05:03;;;;;;;18.70;10.90;;;;;;;8.79;96.72;97604.44;5085601;28;20210;-78
2024/02/27 10:07:31;;;;;;;17.47;11.33;;;;;;;8.82;95.93;97601.63;5086706;28;20265;-78
2024/02/27 10:09:59;;;;;;;19.10;11.63;;;;;;;8.97;95.91;97603.16;5086684;28;20210;-79
2024/02/27 10:12:25;;;;;;;17.73;10.97;;;;;;;9.04;92.69;97593.84;5085848;28;20229;-79
2024/02/27 10:14:52;;;;;;;20.43;11.73;;;;;;;9.10;93.03;97593.41;5084550;28;20211;-80
2024/02/27 10:17:20;;;;;;;16.33;11.57;;;;;;;9.14;92.15;97590.47;5082359;28;20253;-79
2024/02/27 10:19:47;;;;;;;21.80;11.17;;;;;;;9.30;89.84;97584.94;5084859;28;20207;-79
2024/02/27 10:22:14;;;;;;;18.63;11.40;;;;;;;9.38;90.01;97593.13;5085153;28;20231;-78
2024/02/27 10:24:41;;;;;;;20.07;11.30;;;;;;;9.46;91.26;97591.59;5084973;28;20309;-79
2024/02/27 10:27:08;;;;;;;17.57;11.07;;;;;;;9.50;88.78;97584.31;5085057;28;20211;-79
2024/02/27 10:29:35;;;;;;;17.13;11.53;;;;;;;9.47;87.77;97576.59;5084194;28;20226;-79
2024/02/27 10:32:02;;;;;;;18.80;12.27;;;;;;;9.41;88.16;97583.19;5083736;28;20220;-79
2024/02/27 10:34:30;;;;;;;20.00;12.33;;;;;;;9.53;87.18;97581.44;5083380;28;20213;-79
2024/02/27 10:37:00;;;;;;;19.33;12.43;;;;;;;9.59;86.65;97575.69;5083472;28;20221;-79
2024/02/27 10:39:28;;;;;;;19.13;11.57;;;;;;;9.70;86.56;97578.38;5083445;28;20199;-78
2024/02/27 10:41:55;;;;;;;18.23;11.87;;;;;;;9.78;86.00;97586.59;5082908;28;20231;-78
2024/02/27 10:44:22;;;;;;;18.77;12.13;;;;;;;9.80;86.94;97597.88;5082135;28;20236;-78
2024/02/27 10:46:49;;;;;;;20.17;12.73;;;;;;;9.69;87.20;97601.31;5082790;28;20216;-78
2024/02/27 10:49:16;;;;;;;19.37;11.73;;;;;;;9.71;87.51;97606.44;5081849;28;20230;-78
2024/02/27 10:51:44;;;;;;;19.90;13.13;;;;;;;9.79;86.78;97604.13;5081797;28;20234;-78
2024/02/27 10:54:10;;;;;;;19.33;11.53;;;;;;;9.89;87.42;97607.72;5082329;28;20223;-78
2024/02/27 10:56:38;;;;;;;19.27;11.83;;;;;;;9.95;87.47;97620.47;5081198;28;20211;-78
2024/02/27 10:59:06;;;;;;;19.20;12.20;;;;;;;10.05;86.21;97610.94;5082062;28;20206;-78
2024/02/27 11:01:33;;;;;;;21.13;13.63;;;;;;;10.16;85.56;97600.41;5081306;28;20231;-78
2024/02/27 11:04:03;;;;;;;19.93;13.00;;;;;;;10.18;85.04;97609.06;5082136;28;20212;-78
2024/02/27 11:06:32;;;;;;;23.63;13.53;;;;;;;10.05;86.08;97610.94;5079707;28;20214;-78
2024/02/27 11:09:03;;;;;;;19.97;12.50;;;;;;;10.13;85.71;97608.56;5081499;28;20229;-78
2024/02/27 11:11:30;;;;;;;20.57;12.87;;;;;;;10.14;86.13;97610.25;5081445;28;20607;-79
2024/02/27 11:14:01;;;;;;;20.30;12.50;;;;;;;10.22;85.56;97613.16;5082443;28;20301;-78
2024/02/27 11:16:30;;;;;;;21.63;13.30;;;;;;;10.32;83.59;97587.72;5080751;28;20190;-78
2024/02/27 11:19:05;;;;;;;24.23;13.93;;;;;;;10.21;84.08;97590.34;5071907;28;20202;-78
2024/02/27 11:21:31;;;;;;;18.93;12.67;;;;;;;10.32;84.79;97593.00;5072362;28;20227;-77
2024/02/27 11:23:58;;;;;;;20.93;13.10;;;;;;;10.41;85.52;97600.22;5075579;28;20661;-78
2024/02/27 11:26:25;;;;;;;23.70;13.73;;;;;;;10.36;85.06;97605.88;5081100;28;20252;-78
2024/02/27 11:28:53;;;;;;;21.57;13.07;;;;;;;10.38;85.47;97598.66;5081420;28;20315;-79
2024/02/27 11:31:22;;;;;;;23.07;13.20;;;;;;;10.38;84.20;97598.66;5081263;28;20206;-78